Terminal Aerodrome Forecast
Issued by NWS

Home | Current Version | Previous Version | Text Only | Print | Product List | Glossary Off
Versions: 1 2 3 4 5 6 7 8 9 10 11 12 13 14 15

000
FTUS42 KMHX 091100
TAFOAJ
TAF
KOAJ 091136Z 0912/1012 22006KT P6SM SKC
     FM091500 21012G20KT P6SM SCT050
     FM091800 20012G20KT P6SM VCTS BKN040CB
     FM100000 20008KT P6SM SCT050
      AMD LTD TO CLD VIS AND WIND=

USA.gov is the U.S. government's official web portal to all federal, state and local government web resources and services.